Briefing drone pour Le pont-de-claix

Rechercher une autre localisation

Conditions de vol :


Nous sommes le : Samedi 04 février 2023
Il est 22:56 UTC (23:56 LT)

Lever de soleil : 06:27 UTC (07:27 LT)
Coucher de soleil : 17:14 UTC (18:14 LT)

Météo

L'essentiel des conditions de vol

VIGILANCE MÉTÉO FRANCE - Isère (38)
Pas de vigilances particulieres
METAR de LFLS
LFLS 042230Z AUTO 36010KT 9999 FEW011 06/04 Q1034

Date d'émission: 04/02/2023
Heure d'émission: 22:30 UTC
Vent: 360° pour 10 KT (19 km/h)
Visibilité horizontale: > 10 km
Plafond :
- Peu de nuages à 1100ft (335m)
Température: 6 °C
Point de rosée: 4 °C
Humidité: 87%
Pression (QNH): 1034 hPa
TAF de LFLS
LFLS 042017Z 0420/0515 CNL

Conditions prévues :

Heure d'émission : Bulletin éffectué le 04 à 20:00 UTC
Prévision : Valide du 04 a 20:00 UTC au 05 a 15:00 UTC
Nuages : à 0ft (0 m)
WEBCAM POUR LE PONT-DE-CLAIX

Réglementation

Voler en sécurité

CARTES AERONAUTIQUE 1/500.000
CARTE AZBA (Reseau basse altitude)
CARTES VAC (LFLS)
SUP AIP




Chargement des AIP...
NOTAM (LE PONT-DE-CLAIX + Terrain à proximité / FIR )




Chargement des NOTAMS...
CONTACT PREFECTURE 38
Isère (38) : [email protected]


Avertissement : Les données mises à disposition sont indicatives. Oxygène Drone ne pourra être tenu responsable de dégâts causés aux biens et aux personnes.